Latest Weather Observations for Kingfish B

IDV60801

Issued at 10:02 pm EST Saturday 25 June 2016 (issued every 30 minutes, with the page automatically refreshed every 10 minutes)

About weather observations | Map of weather stations | Latest weather observations for VIC | Other Formats
Station Details ID: 400139 Name: KINGFISH B (PLATFORM) Lat: -38.60 Lon: 148.19 Height: 31.4 m
Data from the previous 72 hours. | See also: Recent months for locations in Victoria
Date/Time
EST
Temp
°C
App
Temp
°C
Dew
Point
°C
Rel
Hum
%
Delta-T
°C
Wind Press
QNH
hPa
Press
MSL
hPa
Rain since
9am
mm
Dir  Spd
km/h
Gust
km/h
Spd
kts
Gust
kts
25/08:40pm 12.6 6.7 7.7 72 2.4 WSW 28 32 15 17 1018.7 - -
25/08:30pm 12.6 6.7 7.7 72 2.4 WSW 28 32 15 17 1018.8 - -
25/08:20pm 12.4 6.4 7.2 70 2.5 SW 28 33 15 18 1018.8 - -
25/08:10pm 12.6 6.6 7.2 69 2.6 SW 28 32 15 17 1019.0 - -
25/08:00pm 12.6 6.9 6.6 67 2.9 SW 26 32 14 17 1019.0 - -
25/07:50pm 12.4 7.4 6.6 68 2.8 SW 22 28 12 15 1018.7 - -
25/07:40pm 12.8 7.1 6.7 66 2.9 SW 26 33 14 18 1019.0 - -
25/07:30pm 12.8 7.0 6.1 64 3.2 SW 26 33 14 18 1019.3 - -
25/07:20pm 12.6 6.7 6.0 64 3.1 SW 26 32 14 17 1019.4 - -
25/07:10pm 12.5 6.7 6.1 65 3.0 SW 26 33 14 18 1019.3 - -
25/07:00pm 12.4 7.0 6.2 66 2.9 SW 24 30 13 16 1019.5 - -
25/06:50pm 12.4 6.6 6.1 65 3.0 SW 26 32 14 17 1019.9 - -
25/06:40pm 12.5 6.2 5.9 64 3.1 SW 28 33 15 18 1019.8 - -
25/06:30pm 12.5 6.2 5.9 64 3.1 SW 28 33 15 18 1020.1 - -
25/06:20pm 12.5 5.9 6.0 64 3.1 SW 30 35 16 19 1019.9 - -
25/06:10pm 12.5 5.5 5.9 64 3.1 SW 32 35 17 19 1019.7 - -
25/06:00pm 12.5 5.9 6.0 64 3.1 SW 30 35 16 19 1019.5 - -
25/05:50pm 12.5 5.9 5.9 64 3.1 SW 30 35 16 19 1019.4 - -
25/05:40pm 12.5 5.9 5.9 64 3.1 SW 30 37 16 20 1018.9 - -
25/05:30pm 12.6 5.5 5.7 63 3.2 SW 32 39 17 21 1019.2 - -
25/05:20pm 12.6 5.5 5.5 62 3.3 SW 32 41 17 22 1019.2 - -
25/05:10pm 12.5 4.8 5.5 62 3.3 SW 35 43 19 23 1019.1 - -
25/05:00pm 12.5 4.9 5.6 63 3.2 SW 35 41 19 22 1019.1 - -
25/04:50pm 12.4 4.8 5.7 63 3.1 SW 35 41 19 22 1018.8 - -
25/04:40pm 12.5 5.3 5.7 63 3.2 SW 33 43 18 23 1018.6 - -
25/04:30pm 12.3 5.0 5.5 63 3.2 SW 33 41 18 22 1018.7 - -
25/04:20pm 12.2 4.2 5.5 63 3.1 SW 37 43 20 23 1018.3 - -
25/04:10pm 12.5 4.5 5.7 63 3.2 SW 37 44 20 24 1018.2 - -
25/04:00pm 12.5 5.2 5.3 61 3.3 SW 33 41 18 22 1018.3 - -
25/03:50pm 12.6 4.5 5.2 60 3.4 SW 37 44 20 24 1018.3 - -
25/03:40pm 12.6 5.3 5.3 61 3.4 SW 33 41 18 22 1018.5 - -
25/03:30pm 12.6 4.4 4.8 59 3.6 SW 37 44 20 24 1018.1 - -
25/03:20pm 12.6 4.4 4.7 58 3.6 SW 37 46 20 25 1018.3 - -
25/03:10pm 12.6 4.3 4.4 57 3.7 SW 37 44 20 24 1018.2 - -
25/03:00pm 12.6 4.8 5.0 60 3.5 SW 35 41 19 22 1018.0 - -
25/02:50pm 12.5 4.8 5.3 61 3.3 SW 35 43 19 23 1017.7 - -
25/02:40pm 12.6 4.7 4.6 58 3.7 SW 35 44 19 24 1017.4 - -
25/02:30pm 12.7 4.8 4.6 58 3.7 SW 35 44 19 24 1017.3 - -
25/02:20pm 12.6 3.9 3.9 55 3.9 SW 39 48 21 26 1017.1 - -
25/02:10pm 12.6 4.3 4.2 56 3.8 SW 37 44 20 24 1017.0 - -
25/02:00pm 12.5 5.0 4.3 57 3.7 SW 33 41 18 22 1017.3 - -
25/01:50pm 12.5 4.9 4.0 56 3.8 SSW 33 41 18 22 1017.1 - -
25/01:40pm 12.3 4.2 3.4 54 4.0 SSW 35 43 19 23 1017.1 - -
25/01:30pm 12.6 3.3 2.7 51 4.3 SSW 41 48 22 26 1017.3 - -
25/01:20pm 12.5 3.6 3.3 53 4.1 SW 39 46 21 25 1017.4 - -
25/01:10pm 12.4 3.9 3.4 54 4.0 SW 37 48 20 26 1017.3 - -
25/01:00pm 12.5 4.0 3.0 52 4.2 SW 37 48 20 26 1017.5 - -
25/12:50pm 12.5 3.6 3.3 53 4.1 SSW 39 44 21 24 1018.3 - -
25/12:40pm 12.4 3.9 3.3 54 4.0 SSW 37 44 20 24 1018.2 - -
25/12:30pm 12.6 4.1 2.9 51 4.3 SW 37 44 20 24 1017.9 - -
25/12:20pm 12.7 4.2 3.4 53 4.1 SW 37 46 20 25 1017.9 - -
25/12:10pm 12.6 4.2 3.6 54 4.0 SW 37 44 20 24 1017.9 - -
25/12:00pm 12.8 4.0 3.8 54 4.1 SW 39 46 21 25 1017.6 - -
25/11:50am 12.8 4.4 3.9 54 4.0 SW 37 46 20 25 1016.9 - -
25/11:40am 12.8 4.4 3.5 53 4.2 SW 37 46 20 25 1016.9 - -
25/11:30am 12.8 4.3 3.4 53 4.2 SW 37 44 20 24 1017.0 - -
25/11:20am 12.7 3.8 3.2 52 4.2 SW 39 46 21 25 1017.2 - -
25/11:10am 12.7 4.7 3.8 54 4.0 SW 35 48 19 26 1017.3 - -
25/11:00am 12.7 4.2 3.4 53 4.1 SW 37 44 20 24 1017.6 - -
25/10:50am 13.0 4.5 3.2 51 4.4 SW 37 46 20 25 1017.5 - -
25/10:40am 13.1 4.2 3.2 51 4.4 SW 39 50 21 27 1017.5 - -
25/10:30am 13.1 4.5 2.7 49 4.6 SW 37 44 20 24 1017.5 - -
25/10:20am 12.9 4.4 3.1 51 4.3 SW 37 44 20 24 1017.7 - -
25/10:10am 12.5 3.9 2.7 51 4.3 SSW 37 46 20 25 1018.0 - -
25/10:00am 12.6 4.1 3.2 52 4.2 SSW 37 44 20 24 1018.3 - -
25/09:50am 12.3 3.4 3.1 53 4.1 SSW 39 46 21 25 1018.7 - -
25/09:40am 12.0 3.2 3.4 55 3.8 SSW 39 48 21 26 1018.9 - -
25/09:30am 12.2 3.3 3.3 54 3.9 SSW 39 46 21 25 1018.9 - -
25/09:20am 12.5 3.1 2.2 49 4.5 SSW 41 46 22 25 1018.7 - -
25/09:10am 12.2 2.9 3.2 54 4.0 SSW 41 48 22 26 1018.5 - -
25/09:00am 12.6 3.1 2.0 48 4.6 SSW 41 48 22 26 1018.5 - -
25/08:50am 12.3 3.7 2.8 52 4.2 SSW 37 46 20 25 1018.1 - -
25/08:40am 12.4 3.4 2.4 50 4.3 SSW 39 46 21 25 1018.1 - -
25/08:30am 12.4 3.5 3.3 54 4.0 SW 39 50 21 27 1017.1 - -
25/08:20am 12.0 2.8 3.3 55 3.8 SW 41 52 22 28 1017.0 - -
25/08:10am 11.8 2.1 2.6 53 4.0 SSW 43 50 23 27 1017.6 - -
25/08:00am 12.1 2.7 2.4 51 4.2 SSW 41 48 22 26 1017.6 - -
25/07:50am 11.8 2.4 2.5 53 4.0 SSW 41 48 22 26 1017.7 - -
25/07:40am 11.6 2.7 3.0 55 3.8 SSW 39 46 21 25 1017.7 - -
25/07:30am 11.5 3.0 2.9 55 3.8 SSW 37 46 20 25 1017.6 - -
25/07:20am 11.8 2.4 2.3 52 4.1 SSW 41 46 22 25 1017.3 - -
25/07:10am 11.6 2.2 2.1 52 4.1 SSW 41 50 22 27 1017.0 - -
25/07:00am 11.5 2.0 1.7 51 4.2 SSW 41 48 22 26 1017.0 - -
25/06:50am 11.5 2.4 2.1 52 4.0 SW 39 48 21 26 1016.2 - -
25/06:30am 11.4 2.3 1.6 51 4.1 SSW 39 46 21 25 1016.2 - -
25/06:20am 11.4 1.4 1.2 49 4.3 SSW 43 52 23 28 1016.0 - -
25/06:10am 11.5 1.7 2.0 52 4.1 SSW 43 50 23 27 1015.8 - -
25/06:00am 11.5 1.6 1.7 51 4.2 SSW 43 50 23 27 1015.9 - -
25/05:50am 11.5 2.1 2.2 53 4.0 SW 41 48 22 26 1015.4 - -
25/05:40am 11.4 2.4 2.6 54 3.8 SSW 39 46 21 25 1015.4 - -
25/05:30am 11.4 1.6 2.5 54 3.8 SSW 43 48 23 26 1015.4 - -
25/05:20am 11.2 1.8 2.4 54 3.8 SSW 41 50 22 27 1015.3 - -
25/05:10am 11.2 1.2 2.0 53 3.9 SSW 44 63 24 34 1015.3 - -
25/05:00am 11.0 1.6 2.3 55 3.7 SSW 41 50 22 27 1015.8 - -
25/04:50am 11.0 1.1 1.7 52 3.9 SSW 43 50 23 27 1015.5 - -
25/04:40am 11.1 0.5 0.8 49 4.3 SSW 46 56 25 30 1015.7 - -
25/04:30am 11.3 1.3 2.0 53 4.0 SSW 44 52 24 28 1015.3 - -
25/04:20am 11.4 1.1 2.4 54 3.9 SSW 46 57 25 31 1015.1 - -
25/04:10am 11.2 1.1 1.7 52 4.0 SSW 44 56 24 30 1015.4 - -
25/04:00am 11.1 0.1 1.0 50 4.2 SSW 48 54 26 29 1015.5 - -
25/03:50am 11.2 1.1 1.4 51 4.1 SSW 44 54 24 29 1015.4 - -
25/03:40am 11.1 0.6 1.6 52 4.0 SSW 46 54 25 29 1015.4 - -
25/03:30am 11.2 0.3 1.6 51 4.1 SSW 48 57 26 31 1015.3 - -
25/03:20am 11.1 0.2 1.2 50 4.1 SSW 48 56 26 30 1015.2 - -
25/03:10am 11.4 1.0 2.0 52 4.0 SSW 46 54 25 29 1014.9 - -
25/03:00am 11.3 0.4 1.6 51 4.1 SSW 48 56 26 30 1014.2 - -
25/02:50am 11.4 1.1 2.7 55 3.8 SSW 46 59 25 32 1013.9 - -
25/02:40am 11.4 1.0 2.3 53 3.9 SSW 46 59 25 32 1013.7 - -
25/02:30am 11.4 0.6 2.2 53 3.9 SSW 48 57 26 31 1013.4 - -
25/02:20am 11.5 0.6 1.6 50 4.2 SSW 48 57 26 31 1013.1 - -
25/02:10am 11.4 0.6 1.7 51 4.1 SSW 48 57 26 31 1013.3 - -
25/02:00am 11.4 0.1 1.4 50 4.2 SSW 50 57 27 31 1013.4 - -
25/01:50am 11.4 1.0 2.0 52 4.0 SSW 46 59 25 32 1012.8 - -
25/01:40am 11.4 0.5 1.5 50 4.2 SSW 48 57 26 31 1012.7 - -
25/01:30am 11.4 1.4 1.9 52 4.0 SSW 44 54 24 29 1012.5 - -
25/01:20am 11.4 0.1 1.3 50 4.2 SSW 50 59 27 32 1012.7 - -
25/01:10am 11.4 0.7 2.5 54 3.8 SW 48 59 26 32 1012.3 - -
25/01:00am 11.5 1.2 2.9 55 3.8 SSW 46 56 25 30 1011.9 - -
25/12:50am 11.3 0.6 2.6 55 3.8 SSW 48 59 26 32 1012.0 - -
25/12:40am 11.3 0.6 2.5 54 3.8 SW 48 57 26 31 1011.5 - -
25/12:30am 11.2 1.4 3.1 57 3.5 SW 44 57 24 31 1011.2 - -
25/12:20am 11.2 1.4 2.2 54 3.9 SW 43 52 23 28 1010.6 - -
25/12:10am 11.2 1.4 2.4 54 3.8 SW 43 50 23 27 1010.6 - -
25/12:00am 11.2 1.5 2.9 56 3.6 SW 43 50 23 27 1010.7 - -
 
Date/Time
EST
Temp
°C
App
Temp
°C
Dew
Point
°C
Rel
Hum
%
Delta-T
°C
Wind Press
QNH
hPa
Press
MSL
hPa
Rain since
9am
mm
Dir  Spd
km/h
Gust
km/h
Spd
kts
Gust
kts
24/11:50pm 11.1 1.1 2.4 55 3.7 SW 44 54 24 29 1010.6 - -
24/11:40pm 11.1 0.4 2.8 56 3.6 SW 48 59 26 32 1010.7 - -
24/11:30pm 11.1 1.0 3.6 60 3.3 SW 46 56 25 30 1010.3 - -
24/11:20pm 11.1 0.8 2.6 56 3.7 SW 46 57 25 31 1010.7 - -
24/11:10pm 11.0 0.6 2.3 55 3.7 SW 46 54 25 29 1010.6 - -
24/11:00pm 11.1 0.7 2.2 54 3.8 SW 46 56 25 30 1009.8 - -
24/10:50pm 12.6 3.0 3.2 52 4.2 SW 43 52 23 28 1010.1 - -
24/10:40pm 13.3 3.2 4.0 53 4.2 SW 46 56 25 30 1009.7 - -
24/10:30pm 10.7 1.2 4.0 63 3.0 SW 43 52 23 28 1009.3 - -
24/10:20pm 10.9 1.4 3.9 62 3.1 SW 43 59 23 32 1009.6 - -
24/10:10pm 10.6 -0.5 2.2 56 3.6 SW 50 59 27 32 1009.5 - -
24/10:00pm 10.1 -0.5 3.1 62 3.0 SW 48 57 26 31 1009.2 - -
24/09:40pm 9.7 2.4 4.4 69 2.4 WSW 32 52 17 28 1009.2 - -
24/09:30pm 9.7 1.9 4.7 71 2.2 WSW 35 48 19 26 1009.1 - -
24/09:20pm 10.1 2.2 4.4 68 2.5 WSW 35 46 19 25 1009.0 - -
24/09:10pm 10.4 1.2 3.7 63 2.9 SW 41 48 22 26 1008.6 - -
24/09:00pm 10.3 1.5 3.5 62 3.0 SW 39 48 21 26 1008.7 - -
24/08:50pm 10.5 0.0 3.9 63 2.9 SW 48 61 26 33 1008.3 - -
24/08:40pm 10.5 0.4 4.0 64 2.9 WSW 46 57 25 31 1007.8 - -
24/08:30pm 10.5 0.5 2.3 57 3.5 SW 44 50 24 27 1008.0 - -
24/08:20pm 10.2 0.4 2.2 57 3.4 SW 43 52 23 28 1007.8 - -
24/08:10pm 10.3 2.5 4.9 69 2.4 WSW 35 48 19 26 1008.0 - -
24/08:00pm 10.4 2.5 4.1 65 2.8 WSW 35 54 19 29 1007.9 - -
24/07:50pm 10.3 2.7 3.8 64 2.9 WSW 33 46 18 25 1007.5 - -
24/07:40pm 10.0 0.9 1.7 56 3.5 WSW 39 50 21 27 1007.1 - -
24/07:30pm 9.8 1.1 2.0 58 3.3 SW 37 44 20 24 1007.2 - -
24/07:20pm 10.1 -0.4 3.7 64 2.8 SW 48 63 26 34 1007.4 - -
24/07:10pm 10.3 0.9 5.3 71 2.3 WSW 44 54 24 29 1006.3 - -
24/07:00pm 10.2 1.7 5.2 71 2.3 WSW 39 50 21 27 1006.7 - -
24/06:50pm 10.4 1.1 5.0 69 2.4 WSW 43 59 23 32 1006.5 - -
24/06:40pm 10.4 2.1 4.3 66 2.7 WSW 37 46 20 25 1006.3 - -
24/06:30pm 9.9 0.6 3.1 62 2.9 SW 41 52 22 28 1005.8 - -
24/06:20pm 9.9 -0.3 3.3 63 2.9 WSW 46 67 25 36 1005.5 - -
24/06:10pm 10.2 -1.2 2.6 59 3.3 SW 52 69 28 37 1005.3 - -
24/06:00pm 10.3 -1.4 3.5 62 3.0 SW 54 69 29 37 1005.1 - -
24/05:50pm 10.4 -1.1 4.2 65 2.8 WSW 54 65 29 35 1005.0 - -
24/05:40pm 10.8 -0.6 4.9 67 2.7 WSW 54 65 29 35 1004.7 - -
24/05:30pm 10.8 0.9 4.9 67 2.7 WSW 46 57 25 31 1004.7 - -
24/05:20pm 10.7 0.7 4.1 63 2.9 WSW 46 59 25 32 1004.3 - -
24/05:10pm 10.4 0.8 3.5 62 3.0 SW 43 54 23 29 1004.3 - -
24/05:00pm 10.2 0.3 2.9 60 3.1 SW 44 56 24 30 1004.0 - -
24/04:40pm 10.1 0.0 4.0 66 2.7 WSW 46 56 25 30 1003.5 - -
24/04:30pm 10.1 -0.5 3.3 62 3.0 SW 48 57 26 31 1003.4 - -
24/04:10pm 10.0 0.3 3.7 65 2.8 SW 44 56 24 30 1003.6 - -
24/04:00pm 10.0 -0.5 3.5 64 2.8 SW 48 56 26 30 1003.5 - -
24/03:50pm 10.1 -0.7 4.1 66 2.7 SW 50 59 27 32 1003.2 - -
24/03:40pm 10.0 -0.1 3.9 66 2.7 SW 46 57 25 31 1002.5 - -
24/03:30pm 9.8 -0.3 3.9 66 2.6 SW 46 56 25 30 1002.2 - -
24/03:20pm 9.8 0.7 4.0 67 2.6 SW 41 48 22 26 1002.4 - -
24/03:10pm 9.9 0.2 4.1 67 2.6 SW 44 54 24 29 1002.1 - -
24/03:00pm 9.8 1.1 4.0 67 2.6 SW 39 46 21 25 1001.7 - -
24/02:40pm 10.1 1.0 4.1 66 2.7 SW 41 50 22 27 1002.0 - -
24/02:30pm 9.9 0.4 4.1 67 2.6 SW 43 48 23 26 1001.6 - -
24/02:20pm 9.6 -0.4 4.4 70 2.3 SW 46 56 25 30 1001.8 - -
24/02:10pm 9.7 -0.6 4.6 70 2.3 SSW 48 56 26 30 1002.1 - -
24/02:00pm 9.9 -0.3 5.0 71 2.2 SW 48 63 26 34 1001.0 - -
24/01:50pm 10.4 -1.0 4.9 69 2.5 SW 54 69 29 37 999.9 - -
24/01:40pm 10.6 -1.3 4.4 65 2.8 WSW 56 67 30 36 999.5 - -
24/01:30pm 10.6 0.3 4.5 66 2.7 WSW 48 63 26 34 999.8 - -
24/01:20pm 10.5 0.9 4.4 66 2.7 WSW 44 56 24 30 999.8 - -
24/01:10pm 10.7 1.3 4.5 65 2.8 WSW 43 50 23 27 999.7 - -
24/01:00pm 10.7 0.7 4.5 65 2.8 WSW 46 54 25 29 999.3 - -
24/12:50pm 10.7 0.4 4.5 65 2.8 WSW 48 57 26 31 999.2 - -
24/12:40pm 10.6 1.2 4.5 66 2.7 WSW 43 52 23 28 999.5 - -
24/12:30pm 10.5 1.5 4.5 66 2.7 WSW 41 50 22 27 999.8 - -
24/12:20pm 10.4 1.1 4.8 68 2.5 WSW 43 52 23 28 1000.1 - -
24/12:10pm 10.2 0.6 4.6 68 2.5 WSW 44 54 24 29 1000.0 - -
24/12:00pm 10.1 0.7 4.6 68 2.5 WSW 43 48 23 26 1000.1 - -
24/11:30am 10.0 -0.2 5.0 71 2.3 SW 48 57 26 31 999.9 - -
24/11:20am 10.2 0.9 5.2 71 2.3 SW 43 59 23 32 1000.2 - -
24/11:10am 10.7 1.3 5.3 69 2.5 SW 44 56 24 30 1000.1 - -
24/11:00am 11.3 2.0 5.2 66 2.8 SW 43 54 23 29 1000.1 - -
24/10:50am 11.7 2.3 4.7 62 3.2 WSW 43 56 23 30 1000.1 - -
24/10:40am 11.8 3.2 4.5 61 3.3 WSW 39 48 21 26 1000.3 - -
24/10:30am 11.8 4.2 4.0 59 3.5 WSW 33 44 18 24 1000.2 - -
24/10:20am 11.9 3.1 3.7 57 3.7 WSW 39 50 21 27 999.9 - -

Other Formats:

Comma delimited format used in spreadsheet applications
http://www.bom.gov.au/fwo/IDV60801/IDV60801.55039.axf

JavaScript Object Notation format (JSON) in row-major order
http://www.bom.gov.au/fwo/IDV60801/IDV60801.55039.json